^^
Atglen Borough Observatory Historical Data
 
Daily Summary for October 18, 2019 Units:  English    Metric   Both
Daily Weekly Monthly Yearly Custom
  Current: High: Low: Average:
Temperature: 51.3 °F 51.3 °F 45.3 °F 46.8 °F
Dew Point: 40.6 °F 41 °F 39 °F 39.9 °F
Humidity: 67% 80% 66% 77%
Wind Speed: 4.9mph 13mph 0mph 4mph
Wind Gust: 8mph 16mph - -
WindNW - - West
Pressure: 29.88 in 29.88 in 29.73 in -
Precipitation: 0 in      
Historical Graphs
 
 
Tabular Data for October 18, 2019
Time Temperature Dew Point Pressure Wind Wind Speed Wind Gust Humidity Rainfall Rate (Hourly)
00:00 48 °F 40.8 °F 29.73 in WNW 4 mph 9 mph 76% 0 in
00:05 48.2 °F 41 °F 29.73 in WSW 8.1 mph 14 mph 76% 0 in
00:10 48.2 °F 40.6 °F 29.73 in West 8.9 mph 11 mph 75% 0 in
00:15 48.2 °F 40.6 °F 29.73 in WNW 6.9 mph 16 mph 75% 0 in
00:20 48.4 °F 40.8 °F 29.73 in NNW 2 mph 9 mph 75% 0 in
00:25 48 °F 40.5 °F 29.73 in NW 6 mph 6 mph 75% 0 in
00:30 48 °F 40.8 °F 29.74 in WNW 2 mph 12 mph 76% 0 in
00:35 47.8 °F 40.6 °F 29.74 in NW 2 mph 12 mph 76% 0 in
00:40 47.8 °F 40.6 °F 29.74 in West 6 mph 13 mph 76% 0 in
00:45 47.8 °F 40.6 °F 29.74 in WNW 0.9 mph 9 mph 76% 0 in
00:50 47.8 °F 40.6 °F 29.74 in WSW 4 mph 11 mph 76% 0 in
00:55 47.7 °F 40.5 °F 29.74 in West 4 mph 10 mph 76% 0 in
01:00 47.7 °F 40.5 °F 29.74 in NW 2.9 mph 8 mph 76% 0 in
01:05 47.5 °F 40.3 °F 29.74 in NW 4 mph 9 mph 76% 0 in
01:10 47.5 °F 40.3 °F 29.74 in West 2 mph 7 mph 76% 0 in
01:15 47.5 °F 40.3 °F 29.74 in West 13 mph 15 mph 76% 0 in
01:20 47.7 °F 40.5 °F 29.74 in NW 4.9 mph 12 mph 76% 0 in
01:25 47.5 °F 40.3 °F 29.75 in North 4 mph 8 mph 76% 0 in
01:30 47.5 °F 40.3 °F 29.74 in WNW 4 mph 10 mph 76% 0 in
01:35 47.3 °F 40.1 °F 29.74 in West 8.1 mph 14 mph 76% 0 in
01:40 47.5 °F 40.3 °F 29.75 in West 2.9 mph 9 mph 76% 0 in
01:45 47.5 °F 40.3 °F 29.75 in SW 2 mph 16 mph 76% 0 in
01:50 47.3 °F 40.1 °F 29.75 in Calm   6 mph 76% 0 in
01:55 47.1 °F 39.9 °F 29.75 in WNW 8.9 mph 9 mph 76% 0 in
02:00 47.1 °F 39.9 °F 29.75 in WNW 4.9 mph 9 mph 76% 0 in
02:05 47.1 °F 39.9 °F 29.75 in WSW 6.9 mph 14 mph 76% 0 in
02:10 46.9 °F 39.7 °F 29.75 in NNE 2.9 mph 9 mph 76% 0 in
02:15 46.9 °F 40.1 °F 29.76 in NNW 2 mph 7 mph 77% 0 in
02:20 46.8 °F 39.9 °F 29.76 in West 6 mph 8 mph 77% 0 in
02:25 46.8 °F 39.9 °F 29.76 in NW 2.9 mph 11 mph 77% 0 in
02:30 46.8 °F 39.9 °F 29.76 in WNW 2.9 mph 6 mph 77% 0 in
02:35 46.6 °F 40.1 °F 29.75 in West 2.9 mph 10 mph 78% 0 in
02:40 46.8 °F 39.9 °F 29.76 in WNW 2 mph 10 mph 77% 0 in
02:45 46.6 °F 39.7 °F 29.76 in WSW 10.1 mph 12 mph 77% 0 in
02:50 46.8 °F 39.9 °F 29.76 in WNW 2.9 mph 7 mph 77% 0 in
02:55 46.6 °F 39.7 °F 29.76 in NNW 4 mph 10 mph 77% 0 in
03:00 46.6 °F 39.7 °F 29.76 in WNW 2.9 mph 12 mph 77% 0 in
03:05 46.6 °F 40.1 °F 29.75 in West 2 mph 8 mph 78% 0 in
03:10 46.4 °F 39.9 °F 29.75 in WNW 4 mph 10 mph 78% 0 in
03:15 46.6 °F 40.1 °F 29.75 in NW 6 mph 10 mph 78% 0 in
03:20 46.6 °F 39.7 °F 29.76 in WNW 2.9 mph 9 mph 77% 0 in
03:25 46.4 °F 39.6 °F 29.76 in West 2.9 mph 8 mph 77% 0 in
03:30 46 °F 39.6 °F 29.76 in West 6.9 mph 11 mph 78% 0 in
03:35 46 °F 39.9 °F 29.76 in West 8.1 mph 12 mph 79% 0 in
03:40 46 °F 39.6 °F 29.76 in NW 4 mph 10 mph 78% 0 in
03:45 46 °F 39.6 °F 29.77 in NW 2 mph 7 mph 78% 0 in
03:50 46 °F 39.6 °F 29.77 in NW 2 mph 7 mph 78% 0 in
03:55 45.9 °F 39.7 °F 29.77 in Calm   12 mph 79% 0 in
04:00 45.9 °F 39.7 °F 29.77 in WSW 0.9 mph 6 mph 79% 0 in
04:05 45.7 °F 39.6 °F 29.78 in WSW 6 mph 9 mph 79% 0 in
04:10 45.5 °F 39.4 °F 29.77 in WNW 4 mph 8 mph 79% 0 in
04:15 45.5 °F 39.7 °F 29.78 in NW 4.9 mph 8 mph 80% 0 in
04:20 45.5 °F 39.7 °F 29.78 in NW 4 mph 5 mph 80% 0 in
04:27 45.3 °F 39.6 °F 29.78 in West 4 mph 11 mph 80% 0 in
04:30 45.3 °F 39.6 °F 29.78 in NW 4 mph 6 mph 80% 0 in
04:35 45.3 °F 39.6 °F 29.78 in West 4 mph 15 mph 80% 0 in
04:40 45.5 °F 39.4 °F 29.78 in West 4 mph 5 mph 79% 0 in
04:45 45.5 °F 39.4 °F 29.78 in NW 2 mph 14 mph 79% 0 in
04:50 45.5 °F 39.4 °F 29.78 in West 6.9 mph 12 mph 79% 0 in
04:55 45.7 °F 39.6 °F 29.78 in West 8.1 mph 12 mph 79% 0 in
05:00 45.7 °F 39.6 °F 29.78 in WNW 2.9 mph 10 mph 79% 0 in
05:05 45.5 °F 39.4 °F 29.78 in West 11 mph 11 mph 79% 0 in
05:10 45.5 °F 39.4 °F 29.78 in West 2.9 mph 14 mph 79% 0 in
05:15 45.7 °F 39.6 °F 29.78 in West 4 mph 10 mph 79% 0 in
05:20 45.5 °F 39.4 °F 29.79 in West 8.1 mph 9 mph 79% 0 in
05:25 45.5 °F 39.4 °F 29.79 in West 13 mph 13 mph 79% 0 in
05:30 45.7 °F 39.6 °F 29.79 in NW 6.9 mph 11 mph 79% 0 in
05:35 45.5 °F 39.4 °F 29.79 in NNW 6 mph 12 mph 79% 0 in
05:40 45.5 °F 39.4 °F 29.79 in WSW 4.9 mph 6 mph 79% 0 in
05:45 45.7 °F 39.6 °F 29.80 in WNW 2 mph 8 mph 79% 0 in
05:50 45.7 °F 39.6 °F 29.80 in West 6.9 mph 12 mph 79% 0 in
05:55 45.7 °F 39.6 °F 29.80 in NW 11 mph 12 mph 79% 0 in
06:00 45.7 °F 39.6 °F 29.80 in West 6 mph 12 mph 79% 0 in
06:05 45.3 °F 39.2 °F 29.80 in West 6.9 mph 15 mph 79% 0 in
06:10 45.3 °F 39.2 °F 29.80 in West 4 mph 11 mph 79% 0 in
06:15 45.5 °F 39.4 °F 29.81 in WSW 2 mph 11 mph 79% 0 in
06:20 45.5 °F 39 °F 29.81 in West 8.9 mph 12 mph 78% 0 in
06:25 45.7 °F 39.2 °F 29.81 in Calm   8 mph 78% 0 in
06:30 45.5 °F 39 °F 29.81 in WSW 2.9 mph 6 mph 78% 0 in
06:35 45.5 °F 39.4 °F 29.82 in NNW 0.9 mph 5 mph 79% 0 in
06:40 45.5 °F 39.4 °F 29.82 in WNW 0.9 mph 7 mph 79% 0 in
06:45 45.5 °F 39.4 °F 29.83 in WNW 2.9 mph 8 mph 79% 0 in
06:50 45.7 °F 39.6 °F 29.83 in West 2 mph 9 mph 79% 0 in
06:55 45.9 °F 39.7 °F 29.83 in WSW 0.9 mph 6 mph 79% 0 in
07:00 46 °F 39.6 °F 29.83 in Calm   4 mph 78% 0 in
07:05 46.2 °F 39.7 °F 29.83 in NW 2 mph 4 mph 78% 0 in
07:10 46.2 °F 39.7 °F 29.83 in WSW 0.9 mph 2 mph 78% 0 in
07:15 46.2 °F 39.7 °F 29.83 in West 2.9 mph 8 mph 78% 0 in
07:20 46.2 °F 39.7 °F 29.83 in WNW 2 mph 6 mph 78% 0 in
07:25 45.9 °F 39.4 °F 29.83 in West 4 mph 4 mph 78% 0 in
07:30 45.9 °F 39.4 °F 29.83 in South 4.9 mph 5 mph 78% 0 in
07:35 45.9 °F 39.4 °F 29.84 in WNW 0.9 mph 4 mph 78% 0 in
07:40 45.9 °F 39.4 °F 29.84 in SW 2 mph 3 mph 78% 0 in
07:45 45.9 °F 39.4 °F 29.84 in WNW 0.9 mph 3 mph 78% 0 in
07:50 46 °F 39.6 °F 29.84 in WSW 2 mph 7 mph 78% 0 in
07:55 46 °F 39.6 °F 29.85 in WNW 2 mph 4 mph 78% 0 in
08:00 46 °F 39.6 °F 29.85 in WNW 4 mph 4 mph 78% 0 in
08:05 46.4 °F 39.6 °F 29.85 in SSW 0.9 mph 9 mph 77% 0 in
08:10 46.8 °F 39.9 °F 29.85 in Calm   3 mph 77% 0 in
08:15 46.9 °F 40.1 °F 29.86 in SW 0.9 mph 3 mph 77% 0 in
08:20 47.5 °F 40.3 °F 29.86 in West 0.9 mph 3 mph 76% 0 in
08:25 47.8 °F 40.3 °F 29.86 in WNW 4 mph 6 mph 75% 0 in
08:30 48.4 °F 40.8 °F 29.86 in West 4 mph 9 mph 75% 0 in
08:35 48.7 °F 40.5 °F 29.86 in Calm   2 mph 73% 0 in
08:40 48.9 °F 40.6 °F 29.86 in West 2 mph 7 mph 73% 0 in
08:45 49.1 °F 40.5 °F 29.86 in WNW 4 mph 7 mph 72% 0 in
08:50 49.3 °F 40.6 °F 29.86 in WNW 6.9 mph 12 mph 72% 0 in
08:55 49.5 °F 40.5 °F 29.87 in NNW 8.1 mph 9 mph 71% 0 in
09:00 49.6 °F 40.6 °F 29.87 in WNW 4 mph 9 mph 71% 0 in
09:05 50 °F 41 °F 29.87 in NNW 2 mph 6 mph 71% 0 in
09:10 50.4 °F 41 °F 29.88 in NW 4 mph 10 mph 70% 0 in
09:15 50.5 °F 40.8 °F 29.88 in South 2 mph 12 mph 69% 0 in
09:20 50.7 °F 40.5 °F 29.88 in North 6 mph 6 mph 68% 0 in
09:25 50.7 °F 40.1 °F 29.88 in NNW 8.1 mph 9 mph 67% 0 in
09:30 50.7 °F 39.7 °F 29.88 in NNW 2 mph 13 mph 66% 0 in
09:35 51.3 °F 40.6 °F 29.88 in NW 4.9 mph 8 mph 67% 0 in
Atglen Borough Observatory, Pennsylvania, USA
Compliments of Weather Underground - 4 mb